createdAt,value
2018-08-07T00:00:12.545Z,319.00
2018-08-07T00:01:13.323Z,319.00
2018-08-07T00:02:14.207Z,319.00
2018-08-07T00:03:13.897Z,319.00
2018-08-07T00:04:15.677Z,319.00
2018-08-07T00:05:16.450Z,320.00
2018-08-07T00:06:17.228Z,319.00
2018-08-07T00:07:18.027Z,319.00
2018-08-07T00:08:18.800Z,320.00
2018-08-07T00:09:19.573Z,319.00
2018-08-07T00:10:20.349Z,320.00
2018-08-07T00:11:21.125Z,319.00
2018-08-07T00:12:21.926Z,319.00
2018-08-07T00:13:22.701Z,319.00
2018-08-07T00:14:23.476Z,319.00
2018-08-07T00:15:25.696Z,320.00
2018-08-07T00:24:12.625Z,319.00
2018-08-07T00:25:13.390Z,320.00
2018-08-07T00:26:14.161Z,319.00
2018-08-07T00:27:14.931Z,319.00
2018-08-07T00:28:15.700Z,319.00
2018-08-07T00:29:16.497Z,319.00
2018-08-07T00:30:17.265Z,320.00
2018-08-07T00:31:18.041Z,319.00
2018-08-07T00:32:18.814Z,319.00
2018-08-07T00:33:19.588Z,319.00
2018-08-07T00:34:20.386Z,320.00
2018-08-07T00:35:21.159Z,319.00
2018-08-07T00:36:21.949Z,319.00
2018-08-07T00:37:22.722Z,319.00
2018-08-07T00:38:22.492Z,319.00
2018-08-07T00:39:24.285Z,319.00
2018-08-07T00:40:25.059Z,319.00
2018-08-07T00:41:25.829Z,319.00
2018-08-07T00:42:26.599Z,319.00
2018-08-07T00:43:27.375Z,320.00
2018-08-07T00:44:28.169Z,319.00
2018-08-07T00:45:28.943Z,319.00
2018-08-07T00:46:29.716Z,320.00
2018-08-07T00:47:30.482Z,319.00
2018-08-07T00:48:31.256Z,319.00
2018-08-07T00:49:32.052Z,319.00
2018-08-07T00:50:31.825Z,319.00
2018-08-07T00:51:33.597Z,319.00
2018-08-07T00:52:34.371Z,320.00
2018-08-07T00:53:35.139Z,319.00
2018-08-07T00:54:35.937Z,319.00
2018-08-07T00:55:36.712Z,319.00
2018-08-07T00:56:37.489Z,320.00
2018-08-07T00:57:38.262Z,320.00
2018-08-07T00:58:39.033Z,319.00
2018-08-07T00:59:39.836Z,319.00
2018-08-07T01:00:40.606Z,319.00
2018-08-07T01:01:41.393Z,320.00
2018-08-07T01:02:42.168Z,319.00
2018-08-07T01:03:42.937Z,319.00
2018-08-07T01:04:43.737Z,319.00
2018-08-07T01:05:44.508Z,319.00
2018-08-07T01:06:45.287Z,320.00
2018-08-07T01:07:46.058Z,319.00
2018-08-07T01:08:46.837Z,320.00
2018-08-07T01:09:47.634Z,319.00
2018-08-07T01:10:48.408Z,319.00
2018-08-07T01:11:49.181Z,319.00
2018-08-07T01:12:49.959Z,319.00
2018-08-07T01:13:50.732Z,320.00
2018-08-07T01:14:51.529Z,319.00
2018-08-07T01:15:52.305Z,320.00
2018-08-07T01:16:53.079Z,319.00
2018-08-07T01:17:53.846Z,320.00
2018-08-07T01:18:54.619Z,319.00
2018-08-07T01:19:55.412Z,319.00
2018-08-07T01:20:56.187Z,319.00
2018-08-07T01:21:56.964Z,319.00
2018-08-07T01:22:57.732Z,319.00
2018-08-07T01:23:58.512Z,320.00
2018-08-07T01:24:59.315Z,320.00
2018-08-07T01:26:00.085Z,319.00
2018-08-07T01:27:00.907Z,319.00
2018-08-07T01:28:00.631Z,319.00
2018-08-07T01:29:02.405Z,319.00
2018-08-07T01:30:03.209Z,319.00
2018-08-07T01:31:03.987Z,320.00
2018-08-07T01:32:04.788Z,319.00
2018-08-07T01:33:04.542Z,319.00
2018-08-07T01:34:06.318Z,320.00
2018-08-07T01:35:07.113Z,319.00
2018-08-07T01:36:07.885Z,319.00
2018-08-07T01:37:08.660Z,319.00
2018-08-07T01:38:09.431Z,319.00
2018-08-07T01:39:10.203Z,319.00
2018-08-07T01:40:11.005Z,319.00
2018-08-07T01:41:11.779Z,319.00
2018-08-07T01:42:12.546Z,319.00
2018-08-07T01:43:13.317Z,320.00
2018-08-07T01:44:14.091Z,319.00
2018-08-07T01:45:14.889Z,320.00
2018-08-07T01:46:15.661Z,319.00
2018-08-07T01:47:16.433Z,319.00
2018-08-07T01:48:18.203Z,320.00
2018-08-07T01:49:17.981Z,319.00
2018-08-07T01:50:18.773Z,320.00
2018-08-07T01:51:19.544Z,319.00
2018-08-07T01:52:20.404Z,320.00
2018-08-07T01:53:20.101Z,319.00
2018-08-07T01:54:21.873Z,319.00
2018-08-07T01:55:22.670Z,320.00
2018-08-07T01:56:23.442Z,319.00
2018-08-07T01:57:24.217Z,320.00
2018-08-07T01:58:24.998Z,319.00
2018-08-07T01:59:25.761Z,319.00
2018-08-07T02:00:26.556Z,319.00
2018-08-07T02:01:27.327Z,320.00
2018-08-07T02:02:28.103Z,320.00
2018-08-07T02:03:28.871Z,319.00
2018-08-07T02:04:29.653Z,319.00
2018-08-07T02:05:30.441Z,320.00
2018-08-07T02:06:31.214Z,320.00
2018-08-07T02:07:31.985Z,319.00
2018-08-07T02:08:32.759Z,319.00
2018-08-07T02:09:33.534Z,319.00
2018-08-07T02:10:34.337Z,319.00
2018-08-07T02:11:35.111Z,319.00
2018-08-07T02:12:35.882Z,320.00
2018-08-07T02:13:36.664Z,319.00
2018-08-07T02:14:37.427Z,320.00
2018-08-07T02:15:41.169Z,320.00
2018-08-07T02:28:00.614Z,320.00
2018-08-07T02:29:00.393Z,319.00
2018-08-07T02:30:01.098Z,319.00
2018-08-07T02:31:02.882Z,319.00
2018-08-07T02:32:03.652Z,320.00
2018-08-07T02:33:04.423Z,319.00
2018-08-07T02:34:05.195Z,320.00
2018-08-07T02:35:05.964Z,319.00
2018-08-07T02:36:06.760Z,319.00
2018-08-07T02:37:07.544Z,320.00
2018-08-07T02:38:08.313Z,319.00
2018-08-07T02:39:09.091Z,319.00
2018-08-07T02:40:09.869Z,319.00
2018-08-07T02:41:10.665Z,320.00
2018-08-07T02:42:11.441Z,319.00
2018-08-07T02:43:12.214Z,319.00
2018-08-07T02:44:13.986Z,319.00
2018-08-07T02:45:13.841Z,319.00
2018-08-07T02:46:13.569Z,320.00
2018-08-07T02:47:15.336Z,319.00
2018-08-07T02:48:16.107Z,319.00
2018-08-07T02:49:16.880Z,319.00
2018-08-07T02:50:17.662Z,320.00
2018-08-07T02:51:18.448Z,319.00
2018-08-07T02:52:19.223Z,319.00
2018-08-07T02:53:19.988Z,319.00
2018-08-07T02:54:20.763Z,320.00
2018-08-07T02:55:21.537Z,320.00
2018-08-07T02:56:22.334Z,319.00
2018-08-07T02:57:23.101Z,319.00
2018-08-07T02:58:23.964Z,319.00
2018-08-07T02:59:23.659Z,320.00
2018-08-07T03:00:25.433Z,320.00
2018-08-07T03:01:26.228Z,319.00
2018-08-07T03:02:27.007Z,319.00
2018-08-07T03:03:27.776Z,319.00
2018-08-07T03:04:28.560Z,319.00
2018-08-07T03:05:29.322Z,319.00
2018-08-07T03:06:30.137Z,319.00
2018-08-07T03:07:30.888Z,319.00
2018-08-07T03:08:31.661Z,319.00
2018-08-07T03:09:32.434Z,320.00
2018-08-07T03:10:33.208Z,319.00
2018-08-07T03:11:34.037Z,320.00
2018-08-07T03:12:34.806Z,320.00
2018-08-07T03:13:35.581Z,320.00
2018-08-07T03:14:36.355Z,319.00
2018-08-07T03:15:37.131Z,320.00
2018-08-07T03:16:37.925Z,320.00
2018-08-07T03:17:38.695Z,320.00
2018-08-07T03:18:39.474Z,320.00
2018-08-07T03:19:40.244Z,320.00
2018-08-07T03:20:41.023Z,320.00
2018-08-07T03:21:41.825Z,320.00
2018-08-07T03:22:41.589Z,320.00
2018-08-07T03:23:43.368Z,320.00
2018-08-07T03:24:44.140Z,320.00
2018-08-07T03:25:44.942Z,320.00
2018-08-07T03:26:45.719Z,320.00
2018-08-07T03:27:46.490Z,320.00
2018-08-07T03:28:47.261Z,320.00
2018-08-07T03:29:48.041Z,320.00
2018-08-07T03:30:48.844Z,320.00
2018-08-07T03:31:49.615Z,320.00
2018-08-07T03:32:50.393Z,320.00
2018-08-07T03:33:51.165Z,320.00
2018-08-07T03:34:51.949Z,320.00
2018-08-07T03:35:52.745Z,320.00
2018-08-07T03:36:53.517Z,320.00
2018-08-07T03:37:54.289Z,320.00
2018-08-07T03:38:54.062Z,320.00
2018-08-07T03:39:55.837Z,319.00
2018-08-07T03:40:56.636Z,320.00
2018-08-07T03:41:57.404Z,320.00
2018-08-07T03:42:58.265Z,320.00
2018-08-07T03:43:57.970Z,320.00
2018-08-07T03:44:58.738Z,320.00
2018-08-07T03:46:00.541Z,321.00
2018-08-07T03:47:01.313Z,320.00
2018-08-07T03:48:02.081Z,320.00
2018-08-07T03:49:02.865Z,320.00
2018-08-07T03:50:03.627Z,321.00
2018-08-07T03:51:04.426Z,321.00
2018-08-07T03:52:05.200Z,321.00
2018-08-07T03:53:06.025Z,320.00
2018-08-07T03:54:05.748Z,320.00
2018-08-07T03:55:07.528Z,321.00
2018-08-07T03:56:08.322Z,320.00
2018-08-07T03:57:09.097Z,320.00
2018-08-07T03:58:09.875Z,320.00
2018-08-07T03:59:10.727Z,321.00
2018-08-07T04:00:10.423Z,321.00
2018-08-07T04:01:12.221Z,320.00
2018-08-07T04:02:12.997Z,319.00
2018-08-07T04:03:13.786Z,320.00
2018-08-07T04:04:14.545Z,321.00
2018-08-07T04:05:15.323Z,321.00
2018-08-07T04:06:16.118Z,320.00
2018-08-07T04:07:16.902Z,321.00
2018-08-07T04:08:17.668Z,321.00
2018-08-07T04:09:18.444Z,321.00
2018-08-07T04:10:19.226Z,321.00
2018-08-07T04:11:20.026Z,321.00
2018-08-07T04:12:20.795Z,321.00
2018-08-07T04:13:21.574Z,321.00
2018-08-07T04:14:22.351Z,321.00
2018-08-07T04:15:23.126Z,321.00
2018-08-07T04:16:23.933Z,321.00
2018-08-07T04:17:24.698Z,322.00
2018-08-07T04:18:25.472Z,322.00
2018-08-07T04:19:26.248Z,321.00
2018-08-07T04:20:27.019Z,321.00
2018-08-07T04:21:27.827Z,321.00
2018-08-07T04:22:28.616Z,322.00
2018-08-07T04:23:29.748Z,322.00
2018-08-07T04:24:29.951Z,322.00
2018-08-07T04:25:36.308Z,322.00
2018-08-07T04:26:37.108Z,321.00
2018-08-07T04:27:37.905Z,322.00
2018-08-07T04:28:38.649Z,322.00
2018-08-07T04:29:39.423Z,322.00
2018-08-07T04:30:40.193Z,322.00
2018-08-07T04:31:40.996Z,322.00
2018-08-07T04:32:41.771Z,324.00
2018-08-07T04:33:42.544Z,324.00
2018-08-07T04:34:43.317Z,324.00
2018-08-07T04:35:44.089Z,322.00
2018-08-07T04:36:44.888Z,324.00
2018-08-07T04:37:45.671Z,325.00
2018-08-07T04:38:46.435Z,325.00
2018-08-07T04:39:47.215Z,324.00
2018-08-07T04:40:47.985Z,325.00
2018-08-07T04:41:48.783Z,324.00
2018-08-07T04:42:49.557Z,325.00
2018-08-07T04:43:50.331Z,325.00
2018-08-07T04:44:51.106Z,325.00
2018-08-07T04:45:51.921Z,325.00
2018-08-07T04:46:51.678Z,324.00
2018-08-07T04:47:53.454Z,325.00
2018-08-07T04:48:54.225Z,325.00
2018-08-07T04:49:54.999Z,326.00
2018-08-07T04:50:55.775Z,325.00
2018-08-07T04:51:56.647Z,326.00
2018-08-07T04:52:56.353Z,326.00
2018-08-07T04:53:58.127Z,326.00
2018-08-07T04:54:58.897Z,326.00
2018-08-07T04:55:59.673Z,325.00
2018-08-07T04:57:00.474Z,326.00
2018-08-07T04:58:01.318Z,326.00
2018-08-07T04:59:01.018Z,326.00
2018-08-07T05:00:02.792Z,326.00
2018-08-07T05:01:03.566Z,326.00
2018-08-07T05:02:04.366Z,326.00
2018-08-07T05:03:05.135Z,326.00
2018-08-07T05:04:05.915Z,326.00
2018-08-07T05:05:06.682Z,327.00
2018-08-07T05:06:07.469Z,327.00
2018-08-07T05:07:08.268Z,327.00
2018-08-07T05:08:09.038Z,328.00
2018-08-07T05:09:09.814Z,328.00
2018-08-07T05:10:10.588Z,329.00
2018-08-07T05:11:11.356Z,328.00
2018-08-07T05:12:12.154Z,329.00
2018-08-07T05:13:12.927Z,329.00
2018-08-07T05:14:13.756Z,329.00
2018-08-07T05:15:13.475Z,329.00
2018-08-07T05:16:14.254Z,330.00
2018-08-07T05:17:16.049Z,331.00
2018-08-07T05:18:16.824Z,331.00
2018-08-07T05:19:17.601Z,331.00
2018-08-07T05:20:17.380Z,333.00
2018-08-07T05:21:19.150Z,332.00
2018-08-07T05:22:19.948Z,332.00
2018-08-07T05:23:20.723Z,331.00
2018-08-07T05:24:21.495Z,332.00
2018-08-07T05:25:22.269Z,332.00
2018-08-07T05:26:23.051Z,333.00
2018-08-07T05:27:23.858Z,334.00
2018-08-07T05:28:24.628Z,336.00
2018-08-07T05:29:25.461Z,336.00
2018-08-07T05:30:25.175Z,336.00
2018-08-07T05:31:26.954Z,334.00
2018-08-07T05:32:27.754Z,336.00
2018-08-07T05:33:28.526Z,336.00
2018-08-07T05:34:29.298Z,336.00
2018-08-07T05:35:30.079Z,336.00
2018-08-07T05:36:30.850Z,336.00
2018-08-07T05:37:31.650Z,337.00
2018-08-07T05:38:32.426Z,337.00
2018-08-07T05:39:33.201Z,337.00
2018-08-07T05:40:33.996Z,337.00
2018-08-07T05:41:34.749Z,337.00
2018-08-07T05:42:35.571Z,337.00
2018-08-07T05:43:36.323Z,338.00
2018-08-07T05:44:37.098Z,338.00
2018-08-07T05:45:37.871Z,338.00
2018-08-07T05:46:38.646Z,338.00
2018-08-07T05:47:39.453Z,338.00
2018-08-07T05:48:40.223Z,334.00
2018-08-07T05:49:41.003Z,336.00
2018-08-07T05:50:41.972Z,339.00
2018-08-07T05:51:41.557Z,339.00
2018-08-07T05:52:43.391Z,338.00
2018-08-07T05:53:43.135Z,340.00
2018-08-07T05:54:44.908Z,339.00
2018-08-07T05:55:45.684Z,336.00
2018-08-07T05:56:46.453Z,329.00
2018-08-07T05:57:47.279Z,330.00
2018-08-07T05:58:48.092Z,330.00
2018-08-07T05:59:47.804Z,331.00
2018-08-07T06:00:49.579Z,349.00
2018-08-07T06:01:50.353Z,348.00
2018-08-07T06:02:51.155Z,348.00
2018-08-07T06:03:51.930Z,348.00
2018-08-07T06:04:52.701Z,345.00
2018-08-07T06:05:53.484Z,345.00
2018-08-07T06:06:54.258Z,344.00
2018-08-07T06:07:55.059Z,345.00
2018-08-07T06:08:55.827Z,345.00
2018-08-07T06:09:56.609Z,346.00
2018-08-07T06:10:57.437Z,345.00
2018-08-07T06:11:57.156Z,345.00
2018-08-07T06:12:58.960Z,345.00
2018-08-07T06:13:59.731Z,346.00
2018-08-07T06:15:00.506Z,346.00
2018-08-07T06:16:01.281Z,346.00
2018-08-07T06:17:02.054Z,348.00
2018-08-07T06:18:02.850Z,346.00
2018-08-07T06:19:04.640Z,348.00
2018-08-07T06:20:03.397Z,349.00
2018-08-07T06:21:05.169Z,349.00
2018-08-07T06:22:05.945Z,350.00
2018-08-07T06:23:07.122Z,351.00
2018-08-07T06:24:21.589Z,344.00
2018-08-07T06:25:22.357Z,334.00
2018-08-07T06:26:23.138Z,338.00
2018-08-07T06:27:23.905Z,353.00
2018-08-07T06:28:25.064Z,354.00
2018-08-07T06:29:24.843Z,355.00
2018-08-07T06:30:25.612Z,352.00
2018-08-07T06:31:26.416Z,352.00
2018-08-07T06:32:26.155Z,356.00
2018-08-07T06:33:27.960Z,357.00
2018-08-07T06:34:28.730Z,356.00
2018-08-07T06:35:29.505Z,358.00
2018-08-07T06:36:30.278Z,358.00
2018-08-07T06:37:31.051Z,356.00
2018-08-07T06:38:31.847Z,357.00
2018-08-07T06:39:32.620Z,357.00
2018-08-07T06:40:33.395Z,361.00
2018-08-07T06:41:34.168Z,360.00
2018-08-07T06:42:34.948Z,360.00
2018-08-07T06:43:35.747Z,355.00
2018-08-07T06:44:36.519Z,358.00
2018-08-07T06:45:37.299Z,360.00
2018-08-07T06:46:38.068Z,361.00
2018-08-07T06:47:38.845Z,356.00
2018-08-07T06:48:39.641Z,352.00
2018-08-07T06:49:40.422Z,357.00
2018-08-07T06:50:41.192Z,357.00
2018-08-07T06:51:41.972Z,339.00
2018-08-07T06:52:42.746Z,356.00
2018-08-07T06:53:43.544Z,355.00
2018-08-07T06:54:44.322Z,360.00
2018-08-07T06:55:45.098Z,362.00
2018-08-07T06:56:45.869Z,363.00
2018-08-07T06:57:46.644Z,362.00
2018-08-07T06:58:47.445Z,366.00
2018-08-07T06:59:48.218Z,366.00
2018-08-07T07:00:48.992Z,362.00
2018-08-07T07:01:49.764Z,361.00
2018-08-07T07:02:50.663Z,362.00
2018-08-07T07:03:50.335Z,364.00
2018-08-07T07:04:52.112Z,341.00
2018-08-07T07:05:52.881Z,338.00
2018-08-07T07:06:53.749Z,337.00
2018-08-07T07:07:53.448Z,342.00
2018-08-07T07:08:55.245Z,363.00
2018-08-07T07:09:56.019Z,364.00
2018-08-07T07:10:56.795Z,364.00
2018-08-07T07:11:57.569Z,369.00
2018-08-07T07:12:58.345Z,373.00
2018-08-07T07:13:59.143Z,373.00
2018-08-07T07:15:00.050Z,369.00
2018-08-07T07:15:59.696Z,349.00
2018-08-07T07:17:01.472Z,370.00
2018-08-07T07:18:02.250Z,368.00
2018-08-07T07:19:03.049Z,369.00
2018-08-07T07:20:03.823Z,365.00
2018-08-07T07:21:04.598Z,361.00
2018-08-07T07:22:05.377Z,364.00
2018-08-07T07:23:06.149Z,362.00
2018-08-07T07:24:06.951Z,368.00
2018-08-07T07:25:07.724Z,365.00
2018-08-07T07:26:08.496Z,370.00
2018-08-07T07:27:09.276Z,369.00
2018-08-07T07:28:10.065Z,370.00
2018-08-07T07:29:10.842Z,373.00
2018-08-07T07:30:11.620Z,369.00
2018-08-07T07:31:12.394Z,375.00
2018-08-07T07:32:13.173Z,376.00
2018-08-07T07:33:13.949Z,376.00
2018-08-07T07:34:14.883Z,373.00
2018-08-07T07:35:14.523Z,374.00
2018-08-07T07:36:16.296Z,374.00
2018-08-07T07:37:17.071Z,367.00
2018-08-07T07:38:17.847Z,362.00
2018-08-07T07:39:18.650Z,373.00
2018-08-07T07:40:19.420Z,377.00
2018-08-07T07:41:20.197Z,346.00
2018-08-07T07:42:20.968Z,362.00
2018-08-07T07:43:21.752Z,357.00
2018-08-07T07:44:22.547Z,345.00
2018-08-07T07:45:23.342Z,348.00
2018-08-07T07:46:24.096Z,358.00
2018-08-07T07:47:24.871Z,362.00
2018-08-07T07:48:25.652Z,374.00
2018-08-07T07:49:26.448Z,375.00
2018-08-07T07:50:27.222Z,369.00
2018-08-07T07:51:27.998Z,379.00
2018-08-07T07:52:28.770Z,374.00
2018-08-07T07:53:29.548Z,375.00
2018-08-07T07:54:30.351Z,378.00
2018-08-07T07:55:31.123Z,377.00
2018-08-07T07:56:31.897Z,379.00
2018-08-07T07:57:32.671Z,380.00
2018-08-07T07:58:33.446Z,381.00
2018-08-07T07:59:34.245Z,377.00
2018-08-07T08:00:35.020Z,380.00
2018-08-07T08:01:35.797Z,376.00
2018-08-07T08:02:36.571Z,375.00
2018-08-07T08:03:37.345Z,380.00
2018-08-07T08:04:38.149Z,380.00
2018-08-07T08:05:38.982Z,375.00
2018-08-07T08:06:38.696Z,376.00
2018-08-07T08:07:40.470Z,377.00
2018-08-07T08:08:41.246Z,384.00
2018-08-07T08:09:42.049Z,382.00
2018-08-07T08:10:42.822Z,376.00
2018-08-07T08:11:43.597Z,378.00
2018-08-07T08:12:44.377Z,384.00
2018-08-07T08:13:45.151Z,385.00
2018-08-07T08:14:45.956Z,387.00
2018-08-07T08:15:46.725Z,386.00
2018-08-07T08:16:47.902Z,389.00
2018-08-07T08:19:18.273Z,390.00
2018-08-07T08:20:19.071Z,392.00
2018-08-07T08:21:19.846Z,392.00
2018-08-07T08:22:20.611Z,392.00
2018-08-07T08:23:21.385Z,389.00
2018-08-07T08:24:22.158Z,388.00
2018-08-07T08:25:22.958Z,392.00
2018-08-07T08:26:23.728Z,393.00
2018-08-07T08:27:24.500Z,393.00
2018-08-07T08:28:25.272Z,393.00
2018-08-07T08:29:26.311Z,393.00
2018-08-07T08:30:25.850Z,393.00
2018-08-07T08:31:27.627Z,382.00
2018-08-07T08:32:27.394Z,388.00
2018-08-07T08:33:29.169Z,386.00
2018-08-07T08:34:29.937Z,387.00
2018-08-07T08:35:30.828Z,388.00
2018-08-07T08:36:30.509Z,387.00
2018-08-07T08:37:32.285Z,386.00
2018-08-07T08:38:33.058Z,377.00
2018-08-07T08:39:33.834Z,380.00
2018-08-07T08:40:34.633Z,385.00
2018-08-07T08:41:35.406Z,391.00
2018-08-07T08:42:36.179Z,391.00
2018-08-07T08:43:36.955Z,391.00
2018-08-07T08:44:37.728Z,393.00
2018-08-07T08:45:38.526Z,393.00
2018-08-07T08:46:39.300Z,393.00
2018-08-07T08:47:40.078Z,389.00
2018-08-07T08:48:40.928Z,379.00
2018-08-07T08:49:40.620Z,376.00
2018-08-07T08:50:42.428Z,374.00
2018-08-07T08:51:43.190Z,372.00
2018-08-07T08:52:43.963Z,378.00
2018-08-07T08:53:44.740Z,380.00
2018-08-07T08:54:45.512Z,378.00
2018-08-07T08:55:46.313Z,378.00
2018-08-07T08:56:47.079Z,375.00
2018-08-07T08:57:47.859Z,394.00
2018-08-07T08:58:48.633Z,380.00
2018-08-07T08:59:49.405Z,394.00
2018-08-07T09:00:50.207Z,389.00
2018-08-07T09:01:50.992Z,381.00
2018-08-07T09:02:51.757Z,386.00
2018-08-07T09:03:52.534Z,379.00
2018-08-07T09:04:53.348Z,386.00
2018-08-07T09:05:53.109Z,380.00
2018-08-07T09:06:54.882Z,394.00
2018-08-07T09:07:55.659Z,393.00
2018-08-07T09:08:56.434Z,394.00
2018-08-07T09:09:57.207Z,394.00
2018-08-07T09:10:58.002Z,391.00
2018-08-07T09:11:59.775Z,387.00
2018-08-07T09:12:59.552Z,394.00
2018-08-07T09:14:00.326Z,396.00
2018-08-07T09:15:01.102Z,394.00
2018-08-07T09:16:01.894Z,396.00
2018-08-07T09:17:02.669Z,394.00
2018-08-07T09:18:03.443Z,397.00
2018-08-07T09:19:04.213Z,397.00
2018-08-07T09:20:04.989Z,396.00
2018-08-07T09:21:05.788Z,396.00
2018-08-07T09:22:06.566Z,397.00
2018-08-07T09:23:07.340Z,378.00
2018-08-07T09:24:08.110Z,394.00
2018-08-07T09:25:08.884Z,396.00
2018-08-07T09:26:09.823Z,386.00
2018-08-07T09:27:09.457Z,394.00
2018-08-07T09:28:11.231Z,394.00
2018-08-07T09:29:12.013Z,396.00
2018-08-07T09:30:12.782Z,394.00
2018-08-07T09:31:13.588Z,394.00
2018-08-07T09:32:14.356Z,394.00
2018-08-07T09:33:15.134Z,394.00
2018-08-07T09:34:15.907Z,394.00
2018-08-07T09:35:16.688Z,365.00
2018-08-07T09:36:17.510Z,368.00
2018-08-07T09:37:18.259Z,379.00
2018-08-07T09:38:18.036Z,394.00
2018-08-07T09:39:19.810Z,396.00
2018-08-07T09:40:20.585Z,375.00
2018-08-07T09:41:21.382Z,381.00
2018-08-07T09:42:22.156Z,394.00
2018-08-07T09:43:22.931Z,396.00
2018-08-07T09:44:23.704Z,392.00
2018-08-07T09:45:24.477Z,396.00
2018-08-07T09:46:25.277Z,392.00
2018-08-07T09:47:26.051Z,394.00
2018-08-07T09:48:26.826Z,396.00
2018-08-07T09:49:27.597Z,391.00
2018-08-07T09:50:28.376Z,391.00
2018-08-07T09:51:29.172Z,378.00
2018-08-07T09:52:29.947Z,363.00
2018-08-07T09:53:30.716Z,379.00
2018-08-07T09:54:31.492Z,374.00
2018-08-07T09:55:32.264Z,394.00
2018-08-07T09:56:33.061Z,396.00
2018-08-07T09:57:33.840Z,396.00
2018-08-07T09:58:34.661Z,396.00
2018-08-07T09:59:34.386Z,396.00
2018-08-07T10:00:36.162Z,397.00
2018-08-07T10:01:37.005Z,394.00
2018-08-07T10:02:37.738Z,396.00
2018-08-07T10:03:38.510Z,394.00
2018-08-07T10:04:39.285Z,396.00
2018-08-07T10:05:40.062Z,396.00
2018-08-07T10:06:40.858Z,396.00
2018-08-07T10:07:41.631Z,396.00
2018-08-07T10:08:42.406Z,396.00
2018-08-07T10:09:43.178Z,397.00
2018-08-07T10:10:43.961Z,396.00
2018-08-07T10:11:44.768Z,396.00
2018-08-07T10:12:45.934Z,397.00
2018-08-07T10:13:53.180Z,394.00
2018-08-07T10:14:53.951Z,396.00
2018-08-07T10:15:54.723Z,397.00
2018-08-07T10:16:55.517Z,396.00
2018-08-07T10:17:56.319Z,394.00
2018-08-07T10:18:56.071Z,394.00
2018-08-07T10:19:57.843Z,396.00
2018-08-07T10:20:58.616Z,397.00
2018-08-07T10:21:59.416Z,396.00
2018-08-07T10:23:01.183Z,396.00
2018-08-07T10:24:00.962Z,397.00
2018-08-07T10:25:01.728Z,397.00
2018-08-07T10:26:02.500Z,396.00
2018-08-07T10:27:03.297Z,396.00
2018-08-07T10:28:04.071Z,396.00
2018-08-07T10:29:04.848Z,396.00
2018-08-07T10:30:05.619Z,396.00
2018-08-07T10:31:06.395Z,396.00
2018-08-07T10:32:07.194Z,396.00
2018-08-07T10:33:07.978Z,396.00
2018-08-07T10:34:07.746Z,397.00
2018-08-07T10:35:09.669Z,396.00
2018-08-07T10:36:09.301Z,394.00
2018-08-07T10:37:11.091Z,396.00
2018-08-07T10:38:11.869Z,397.00
2018-08-07T10:39:12.642Z,396.00
2018-08-07T10:40:13.443Z,396.00
2018-08-07T10:41:14.327Z,353.00
2018-08-07T10:42:13.990Z,349.00
2018-08-07T10:43:15.830Z,353.00
2018-08-07T10:44:15.587Z,394.00
2018-08-07T10:45:16.310Z,396.00
2018-08-07T10:46:18.117Z,397.00
2018-08-07T10:47:18.882Z,397.00
2018-08-07T10:48:19.662Z,396.00
2018-08-07T10:49:20.433Z,396.00
2018-08-07T10:50:21.217Z,396.00
2018-08-07T10:51:21.980Z,394.00
2018-08-07T10:52:22.809Z,353.00
2018-08-07T10:53:22.556Z,352.00
2018-08-07T10:54:24.329Z,352.00
2018-08-07T10:55:25.101Z,349.00
2018-08-07T10:56:25.885Z,350.00
2018-08-07T10:57:26.674Z,350.00
2018-08-07T10:58:27.543Z,351.00
2018-08-07T10:59:27.221Z,363.00
2018-08-07T11:00:28.991Z,396.00
2018-08-07T11:01:29.774Z,396.00
2018-08-07T11:02:30.572Z,397.00
2018-08-07T11:03:31.343Z,396.00
2018-08-07T11:04:32.118Z,396.00
2018-08-07T11:05:32.894Z,396.00
2018-08-07T11:06:33.669Z,396.00
2018-08-07T11:07:34.468Z,397.00
2018-08-07T11:08:35.241Z,396.00
2018-08-07T11:09:36.014Z,396.00
2018-08-07T11:10:36.802Z,396.00
2018-08-07T11:11:37.572Z,367.00
2018-08-07T11:12:38.372Z,391.00
2018-08-07T11:13:39.177Z,396.00
2018-08-07T11:14:38.920Z,392.00
2018-08-07T11:15:40.700Z,396.00
2018-08-07T11:16:41.474Z,375.00
2018-08-07T11:17:42.270Z,396.00
2018-08-07T11:18:43.040Z,361.00
2018-08-07T11:19:43.815Z,360.00
2018-08-07T11:20:44.599Z,358.00
2018-08-07T11:21:45.364Z,356.00
2018-08-07T11:22:46.174Z,354.00
2018-08-07T11:23:46.945Z,356.00
2018-08-07T11:24:47.748Z,396.00
2018-08-07T11:25:47.494Z,349.00
2018-08-07T11:26:49.269Z,346.00
2018-08-07T11:27:50.077Z,345.00
2018-08-07T11:28:50.843Z,345.00
2018-08-07T11:29:51.662Z,344.00
2018-08-07T11:30:51.393Z,344.00
2018-08-07T11:31:53.171Z,344.00
2018-08-07T11:32:53.963Z,346.00
2018-08-07T11:33:54.745Z,355.00
2018-08-07T11:34:55.525Z,376.00
2018-08-07T11:35:56.346Z,379.00
2018-08-07T11:36:56.070Z,398.00
2018-08-07T11:37:57.868Z,398.00
2018-08-07T11:38:58.645Z,396.00
2018-08-07T11:39:59.420Z,377.00
2018-08-07T11:41:00.202Z,382.00
2018-08-07T11:42:00.966Z,364.00
2018-08-07T11:43:01.778Z,379.00
2018-08-07T11:44:02.549Z,390.00
2018-08-07T11:45:03.343Z,396.00
2018-08-07T11:46:04.103Z,396.00
2018-08-07T11:47:04.879Z,397.00
2018-08-07T11:48:05.723Z,396.00
2018-08-07T11:49:05.441Z,396.00
2018-08-07T11:50:07.218Z,394.00
2018-08-07T11:51:07.994Z,396.00
2018-08-07T11:52:08.786Z,396.00
2018-08-07T11:53:08.564Z,396.00
2018-08-07T11:54:09.336Z,396.00
2018-08-07T11:55:11.112Z,396.00
2018-08-07T11:56:11.916Z,396.00
2018-08-07T11:57:12.664Z,397.00
2018-08-07T11:58:13.461Z,394.00
2018-08-07T11:59:14.236Z,394.00
2018-08-07T12:00:15.009Z,367.00
2018-08-07T12:01:15.785Z,386.00
2018-08-07T12:02:16.582Z,373.00
2018-08-07T12:03:17.357Z,358.00
2018-08-07T12:04:18.138Z,356.00
2018-08-07T12:05:18.904Z,360.00
2018-08-07T12:06:19.767Z,390.00
2018-08-07T12:07:19.476Z,364.00
2018-08-07T12:08:21.276Z,360.00
2018-08-07T12:09:22.048Z,397.00
2018-08-07T12:10:22.820Z,375.00
2018-08-07T12:11:22.591Z,397.00
2018-08-07T12:12:24.373Z,396.00
2018-08-07T12:13:25.168Z,397.00
2018-08-07T12:14:25.946Z,396.00
2018-08-07T12:15:27.111Z,396.00
2018-08-07T12:16:27.376Z,396.00
2018-08-07T12:20:52.889Z,396.00
2018-08-07T12:21:53.660Z,396.00
2018-08-07T12:22:54.427Z,386.00
2018-08-07T12:23:55.203Z,396.00
2018-08-07T12:24:55.974Z,397.00
2018-08-07T12:25:56.769Z,396.00
2018-08-07T12:26:57.545Z,396.00
2018-08-07T12:27:58.329Z,358.00
2018-08-07T12:28:59.089Z,396.00
2018-08-07T12:29:59.861Z,396.00
2018-08-07T12:31:00.668Z,357.00
2018-08-07T12:32:01.439Z,356.00
2018-08-07T12:33:02.213Z,360.00
2018-08-07T12:34:02.991Z,342.00
2018-08-07T12:35:03.796Z,345.00
2018-08-07T12:36:03.568Z,356.00
2018-08-07T12:37:05.338Z,353.00
2018-08-07T12:38:06.113Z,396.00
2018-08-07T12:39:06.888Z,396.00
2018-08-07T12:40:07.661Z,396.00
2018-08-07T12:41:08.493Z,397.00
2018-08-07T12:42:09.242Z,397.00
2018-08-07T12:43:10.015Z,378.00
2018-08-07T12:44:10.792Z,394.00
2018-08-07T12:45:11.567Z,396.00
2018-08-07T12:46:12.371Z,397.00
2018-08-07T12:47:13.143Z,396.00
2018-08-07T12:48:13.921Z,394.00
2018-08-07T12:49:14.695Z,357.00
2018-08-07T12:50:14.463Z,352.00
2018-08-07T12:51:16.264Z,353.00
2018-08-07T12:52:17.043Z,379.00
2018-08-07T12:53:17.877Z,396.00
2018-08-07T12:54:17.588Z,394.00
2018-08-07T12:55:19.364Z,396.00
2018-08-07T12:56:20.170Z,396.00
2018-08-07T12:57:20.939Z,358.00
2018-08-07T12:58:21.711Z,361.00
2018-08-07T12:59:22.484Z,396.00
2018-08-07T13:00:23.262Z,397.00
2018-08-07T13:01:24.108Z,356.00
2018-08-07T13:02:23.831Z,361.00